sensor_id;sensor_type;location;lat;lon;timestamp;P1;durP1;ratioP1;P2;durP2;ratioP2
64615;SDS011;51027;42.162;24.754;2023-02-21T00:02:03;9.82;;;2.58;;
64615;SDS011;51027;42.162;24.754;2023-02-21T00:04:47;9.18;;;2.40;;
64615;SDS011;51027;42.162;24.754;2023-02-21T00:07:32;6.65;;;2.67;;
64615;SDS011;51027;42.162;24.754;2023-02-21T00:10:16;8.32;;;2.65;;
64615;SDS011;51027;42.162;24.754;2023-02-21T00:13:03;6.13;;;2.25;;
64615;SDS011;51027;42.162;24.754;2023-02-21T00:15:47;5.43;;;1.98;;
64615;SDS011;51027;42.162;24.754;2023-02-21T00:18:34;9.02;;;2.28;;
64615;SDS011;51027;42.162;24.754;2023-02-21T00:21:19;5.50;;;2.05;;
64615;SDS011;51027;42.162;24.754;2023-02-21T00:24:04;4.72;;;2.10;;
64615;SDS011;51027;42.162;24.754;2023-02-21T00:26:48;6.03;;;1.95;;
64615;SDS011;51027;42.162;24.754;2023-02-21T00:29:32;4.72;;;2.13;;
64615;SDS011;51027;42.162;24.754;2023-02-21T00:32:16;4.03;;;1.83;;
64615;SDS011;51027;42.162;24.754;2023-02-21T00:35:00;6.50;;;2.20;;
64615;SDS011;51027;42.162;24.754;2023-02-21T00:37:44;3.50;;;1.80;;
64615;SDS011;51027;42.162;24.754;2023-02-21T00:40:31;3.42;;;2.08;;
64615;SDS011;51027;42.162;24.754;2023-02-21T00:43:15;6.10;;;2.20;;
64615;SDS011;51027;42.162;24.754;2023-02-21T00:45:59;5.10;;;2.25;;
64615;SDS011;51027;42.162;24.754;2023-02-21T00:48:43;5.55;;;2.28;;
64615;SDS011;51027;42.162;24.754;2023-02-21T00:51:27;4.63;;;2.13;;
64615;SDS011;51027;42.162;24.754;2023-02-21T00:54:11;7.28;;;2.25;;
64615;SDS011;51027;42.162;24.754;2023-02-21T00:56:55;6.10;;;2.45;;
64615;SDS011;51027;42.162;24.754;2023-02-21T00:59:39;3.40;;;1.67;;
64615;SDS011;51027;42.162;24.754;2023-02-21T01:02:23;5.93;;;2.15;;
64615;SDS011;51027;42.162;24.754;2023-02-21T01:05:07;5.85;;;1.70;;
64615;SDS011;51027;42.162;24.754;2023-02-21T01:07:51;7.30;;;2.08;;
64615;SDS011;51027;42.162;24.754;2023-02-21T01:10:35;8.48;;;2.67;;
64615;SDS011;51027;42.162;24.754;2023-02-21T01:13:19;14.77;;;2.97;;
64615;SDS011;51027;42.162;24.754;2023-02-21T01:16:03;12.27;;;3.13;;
64615;SDS011;51027;42.162;24.754;2023-02-21T01:18:50;9.73;;;2.83;;
64615;SDS011;51027;42.162;24.754;2023-02-21T01:21:34;9.43;;;2.22;;
64615;SDS011;51027;42.162;24.754;2023-02-21T01:24:18;5.10;;;2.00;;
64615;SDS011;51027;42.162;24.754;2023-02-21T01:27:02;4.07;;;2.00;;
64615;SDS011;51027;42.162;24.754;2023-02-21T01:29:46;6.40;;;1.80;;
64615;SDS011;51027;42.162;24.754;2023-02-21T01:32:31;4.47;;;2.00;;
64615;SDS011;51027;42.162;24.754;2023-02-21T01:35:14;2.88;;;1.88;;
64615;SDS011;51027;42.162;24.754;2023-02-21T01:37:58;6.15;;;2.03;;
64615;SDS011;51027;42.162;24.754;2023-02-21T01:40:42;6.32;;;2.20;;
64615;SDS011;51027;42.162;24.754;2023-02-21T01:43:27;3.50;;;1.70;;
64615;SDS011;51027;42.162;24.754;2023-02-21T01:46:16;5.38;;;2.15;;
64615;SDS011;51027;42.162;24.754;2023-02-21T01:49:08;4.78;;;2.15;;
64615;SDS011;51027;42.162;24.754;2023-02-21T01:51:57;7.20;;;3.20;;
64615;SDS011;51027;42.162;24.754;2023-02-21T01:54:44;8.32;;;2.90;;
64615;SDS011;51027;42.162;24.754;2023-02-21T01:57:32;4.37;;;2.13;;
64615;SDS011;51027;42.162;24.754;2023-02-21T02:00:17;6.07;;;2.22;;
64615;SDS011;51027;42.162;24.754;2023-02-21T02:03:04;5.65;;;2.15;;
64615;SDS011;51027;42.162;24.754;2023-02-21T02:05:52;5.72;;;2.20;;
64615;SDS011;51027;42.162;24.754;2023-02-21T02:08:38;4.35;;;1.90;;
64615;SDS011;51027;42.162;24.754;2023-02-21T02:17:05;8.00;;;2.30;;
64615;SDS011;51027;42.162;24.754;2023-02-21T02:32:48;5.95;;;2.10;;
64615;SDS011;51027;42.162;24.754;2023-02-21T02:35:26;3.55;;;1.50;;
64615;SDS011;51027;42.162;24.754;2023-02-21T02:45:43;7.20;;;2.15;;
64615;SDS011;51027;42.162;24.754;2023-02-21T02:48:35;7.45;;;2.20;;
64615;SDS011;51027;42.162;24.754;2023-02-21T02:51:08;6.20;;;2.20;;
64615;SDS011;51027;42.162;24.754;2023-02-21T02:53:36;6.72;;;1.88;;
64615;SDS011;51027;42.162;24.754;2023-02-21T02:56:04;8.90;;;2.40;;
64615;SDS011;51027;42.162;24.754;2023-02-21T02:58:38;8.60;;;2.20;;
64615;SDS011;51027;42.162;24.754;2023-02-21T03:06:43;6.32;;;2.08;;
64615;SDS011;51027;42.162;24.754;2023-02-21T03:12:15;4.13;;;1.70;;
64615;SDS011;51027;42.162;24.754;2023-02-21T03:14:49;4.65;;;2.38;;
64615;SDS011;51027;42.162;24.754;2023-02-21T03:17:26;5.35;;;2.25;;
64615;SDS011;51027;42.162;24.754;2023-02-21T03:19:54;5.15;;;2.20;;
64615;SDS011;51027;42.162;24.754;2023-02-21T03:22:23;7.47;;;2.20;;
64615;SDS011;51027;42.162;24.754;2023-02-21T03:24:54;4.63;;;2.00;;
64615;SDS011;51027;42.162;24.754;2023-02-21T03:27:21;5.38;;;1.95;;
64615;SDS011;51027;42.162;24.754;2023-02-21T03:29:49;4.55;;;1.88;;
64615;SDS011;51027;42.162;24.754;2023-02-21T03:32:21;6.65;;;1.98;;
64615;SDS011;51027;42.162;24.754;2023-02-21T03:34:54;4.70;;;2.00;;
64615;SDS011;51027;42.162;24.754;2023-02-21T03:39:53;4.47;;;2.15;;
64615;SDS011;51027;42.162;24.754;2023-02-21T03:42:19;6.28;;;1.92;;
64615;SDS011;51027;42.162;24.754;2023-02-21T03:44:44;5.07;;;2.00;;
64615;SDS011;51027;42.162;24.754;2023-02-21T03:47:10;8.20;;;1.92;;
64615;SDS011;51027;42.162;24.754;2023-02-21T03:49:35;6.13;;;2.17;;
64615;SDS011;51027;42.162;24.754;2023-02-21T03:52:00;6.10;;;2.08;;
64615;SDS011;51027;42.162;24.754;2023-02-21T03:54:26;3.33;;;1.98;;
64615;SDS011;51027;42.162;24.754;2023-02-21T03:56:51;5.07;;;2.20;;
64615;SDS011;51027;42.162;24.754;2023-02-21T03:59:17;7.93;;;2.30;;
64615;SDS011;51027;42.162;24.754;2023-02-21T04:01:42;4.57;;;1.77;;
64615;SDS011;51027;42.162;24.754;2023-02-21T04:04:08;5.50;;;1.98;;
64615;SDS011;51027;42.162;24.754;2023-02-21T04:06:33;5.35;;;2.50;;
64615;SDS011;51027;42.162;24.754;2023-02-21T04:08:58;5.22;;;2.08;;
64615;SDS011;51027;42.162;24.754;2023-02-21T04:11:24;6.35;;;2.33;;
64615;SDS011;51027;42.162;24.754;2023-02-21T04:13:49;3.72;;;2.03;;
64615;SDS011;51027;42.162;24.754;2023-02-21T04:16:15;5.10;;;2.47;;
64615;SDS011;51027;42.162;24.754;2023-02-21T04:18:40;9.15;;;2.58;;
64615;SDS011;51027;42.162;24.754;2023-02-21T04:21:05;7.63;;;2.78;;
64615;SDS011;51027;42.162;24.754;2023-02-21T04:23:31;8.13;;;2.80;;
64615;SDS011;51027;42.162;24.754;2023-02-21T04:25:56;5.95;;;2.65;;
64615;SDS011;51027;42.162;24.754;2023-02-21T04:28:22;9.68;;;2.88;;
64615;SDS011;51027;42.162;24.754;2023-02-21T04:30:47;4.65;;;2.15;;
64615;SDS011;51027;42.162;24.754;2023-02-21T04:33:13;10.40;;;2.80;;
64615;SDS011;51027;42.162;24.754;2023-02-21T04:35:38;9.32;;;2.75;;
64615;SDS011;51027;42.162;24.754;2023-02-21T04:38:04;6.05;;;2.55;;
64615;SDS011;51027;42.162;24.754;2023-02-21T04:40:29;12.45;;;3.08;;
64615;SDS011;51027;42.162;24.754;2023-02-21T04:42:55;11.63;;;2.90;;
64615;SDS011;51027;42.162;24.754;2023-02-21T04:45:20;6.55;;;2.20;;
64615;SDS011;51027;42.162;24.754;2023-02-21T04:47:45;8.73;;;2.95;;
64615;SDS011;51027;42.162;24.754;2023-02-21T04:50:11;8.73;;;2.50;;
64615;SDS011;51027;42.162;24.754;2023-02-21T04:52:37;5.13;;;2.30;;
64615;SDS011;51027;42.162;24.754;2023-02-21T04:55:05;6.28;;;2.50;;
64615;SDS011;51027;42.162;24.754;2023-02-21T04:57:31;6.95;;;2.67;;
64615;SDS011;51027;42.162;24.754;2023-02-21T04:59:57;8.77;;;3.00;;
64615;SDS011;51027;42.162;24.754;2023-02-21T05:02:23;8.70;;;2.95;;
64615;SDS011;51027;42.162;24.754;2023-02-21T05:04:49;8.55;;;2.58;;
64615;SDS011;51027;42.162;24.754;2023-02-21T05:07:15;7.75;;;2.47;;
64615;SDS011;51027;42.162;24.754;2023-02-21T05:09:41;10.00;;;2.90;;
64615;SDS011;51027;42.162;24.754;2023-02-21T05:12:06;5.88;;;2.03;;
64615;SDS011;51027;42.162;24.754;2023-02-21T05:14:36;7.60;;;2.70;;
64615;SDS011;51027;42.162;24.754;2023-02-21T05:17:03;5.45;;;2.22;;
64615;SDS011;51027;42.162;24.754;2023-02-21T05:19:28;6.43;;;2.15;;
64615;SDS011;51027;42.162;24.754;2023-02-21T05:21:58;4.72;;;2.20;;
64615;SDS011;51027;42.162;24.754;2023-02-21T05:24:26;5.93;;;2.50;;
64615;SDS011;51027;42.162;24.754;2023-02-21T05:26:52;4.75;;;1.90;;
64615;SDS011;51027;42.162;24.754;2023-02-21T05:29:18;6.10;;;2.35;;
64615;SDS011;51027;42.162;24.754;2023-02-21T05:31:44;4.43;;;2.13;;
64615;SDS011;51027;42.162;24.754;2023-02-21T05:34:10;6.00;;;2.17;;
64615;SDS011;51027;42.162;24.754;2023-02-21T05:36:35;8.15;;;2.53;;
64615;SDS011;51027;42.162;24.754;2023-02-21T05:39:01;9.75;;;3.13;;
64615;SDS011;51027;42.162;24.754;2023-02-21T05:41:26;9.35;;;3.13;;
64615;SDS011;51027;42.162;24.754;2023-02-21T05:43:52;12.70;;;3.15;;
64615;SDS011;51027;42.162;24.754;2023-02-21T05:46:23;6.03;;;2.83;;
64615;SDS011;51027;42.162;24.754;2023-02-21T05:48:54;11.25;;;2.78;;
64615;SDS011;51027;42.162;24.754;2023-02-21T05:51:20;8.07;;;2.70;;
64615;SDS011;51027;42.162;24.754;2023-02-21T05:53:46;8.63;;;2.83;;
64615;SDS011;51027;42.162;24.754;2023-02-21T05:56:12;10.23;;;2.85;;
64615;SDS011;51027;42.162;24.754;2023-02-21T05:58:38;7.85;;;2.45;;
64615;SDS011;51027;42.162;24.754;2023-02-21T06:01:04;11.93;;;3.22;;
64615;SDS011;51027;42.162;24.754;2023-02-21T06:03:30;11.27;;;3.60;;
64615;SDS011;51027;42.162;24.754;2023-02-21T06:05:57;9.88;;;3.83;;
64615;SDS011;51027;42.162;24.754;2023-02-21T06:08:22;10.27;;;3.00;;
64615;SDS011;51027;42.162;24.754;2023-02-21T06:10:48;11.82;;;3.00;;
64615;SDS011;51027;42.162;24.754;2023-02-21T06:13:13;11.18;;;3.13;;
64615;SDS011;51027;42.162;24.754;2023-02-21T06:15:39;9.50;;;3.03;;
64615;SDS011;51027;42.162;24.754;2023-02-21T06:18:04;10.80;;;3.15;;
64615;SDS011;51027;42.162;24.754;2023-02-21T06:20:30;9.45;;;3.20;;
64615;SDS011;51027;42.162;24.754;2023-02-21T06:22:55;7.72;;;2.88;;
64615;SDS011;51027;42.162;24.754;2023-02-21T06:25:21;7.95;;;2.90;;
64615;SDS011;51027;42.162;24.754;2023-02-21T06:27:46;12.98;;;3.70;;
64615;SDS011;51027;42.162;24.754;2023-02-21T06:30:12;15.32;;;3.70;;
64615;SDS011;51027;42.162;24.754;2023-02-21T06:32:37;14.35;;;3.65;;
64615;SDS011;51027;42.162;24.754;2023-02-21T06:35:03;13.18;;;3.88;;
64615;SDS011;51027;42.162;24.754;2023-02-21T06:37:28;19.63;;;5.15;;
64615;SDS011;51027;42.162;24.754;2023-02-21T06:39:54;15.07;;;4.35;;
64615;SDS011;51027;42.162;24.754;2023-02-21T06:42:19;15.23;;;5.10;;
64615;SDS011;51027;42.162;24.754;2023-02-21T06:44:46;13.10;;;4.35;;
64615;SDS011;51027;42.162;24.754;2023-02-21T06:47:13;15.02;;;4.63;;
64615;SDS011;51027;42.162;24.754;2023-02-21T06:49:39;17.15;;;4.88;;
64615;SDS011;51027;42.162;24.754;2023-02-21T06:52:05;16.13;;;4.60;;
64615;SDS011;51027;42.162;24.754;2023-02-21T06:54:31;13.43;;;3.88;;
64615;SDS011;51027;42.162;24.754;2023-02-21T06:56:56;10.80;;;3.05;;
64615;SDS011;51027;42.162;24.754;2023-02-21T06:59:23;7.00;;;2.50;;
64615;SDS011;51027;42.162;24.754;2023-02-21T07:01:49;11.80;;;3.30;;
64615;SDS011;51027;42.162;24.754;2023-02-21T07:04:14;10.70;;;3.10;;
64615;SDS011;51027;42.162;24.754;2023-02-21T07:06:39;10.75;;;2.97;;
64615;SDS011;51027;42.162;24.754;2023-02-21T07:09:05;12.25;;;2.63;;
64615;SDS011;51027;42.162;24.754;2023-02-21T07:11:32;11.95;;;3.08;;
64615;SDS011;51027;42.162;24.754;2023-02-21T07:13:59;8.82;;;3.10;;
64615;SDS011;51027;42.162;24.754;2023-02-21T07:16:24;5.22;;;2.42;;
64615;SDS011;51027;42.162;24.754;2023-02-21T07:18:50;11.23;;;3.20;;
64615;SDS011;51027;42.162;24.754;2023-02-21T07:21:16;10.85;;;2.65;;
64615;SDS011;51027;42.162;24.754;2023-02-21T07:23:43;9.50;;;3.08;;
64615;SDS011;51027;42.162;24.754;2023-02-21T07:26:09;11.60;;;3.35;;
64615;SDS011;51027;42.162;24.754;2023-02-21T07:28:35;9.95;;;2.92;;
64615;SDS011;51027;42.162;24.754;2023-02-21T07:31:00;10.57;;;3.75;;
64615;SDS011;51027;42.162;24.754;2023-02-21T07:33:26;12.52;;;3.75;;
64615;SDS011;51027;42.162;24.754;2023-02-21T07:35:51;16.15;;;3.72;;
64615;SDS011;51027;42.162;24.754;2023-02-21T07:38:27;11.35;;;3.35;;
64615;SDS011;51027;42.162;24.754;2023-02-21T07:40:54;10.23;;;3.15;;
64615;SDS011;51027;42.162;24.754;2023-02-21T07:43:25;10.40;;;3.40;;
64615;SDS011;51027;42.162;24.754;2023-02-21T07:45:51;13.40;;;3.20;;
64615;SDS011;51027;42.162;24.754;2023-02-21T07:48:16;11.27;;;3.55;;
64615;SDS011;51027;42.162;24.754;2023-02-21T07:50:42;11.20;;;3.42;;
64615;SDS011;51027;42.162;24.754;2023-02-21T07:53:09;11.80;;;3.67;;
64615;SDS011;51027;42.162;24.754;2023-02-21T07:55:35;8.95;;;2.75;;
64615;SDS011;51027;42.162;24.754;2023-02-21T07:58:00;9.85;;;3.72;;
64615;SDS011;51027;42.162;24.754;2023-02-21T08:00:26;12.60;;;3.38;;
64615;SDS011;51027;42.162;24.754;2023-02-21T08:02:52;10.70;;;3.35;;
64615;SDS011;51027;42.162;24.754;2023-02-21T08:05:18;10.57;;;3.15;;
64615;SDS011;51027;42.162;24.754;2023-02-21T08:07:44;10.48;;;3.33;;
64615;SDS011;51027;42.162;24.754;2023-02-21T08:10:11;9.13;;;3.33;;
64615;SDS011;51027;42.162;24.754;2023-02-21T08:12:37;12.65;;;3.33;;
64615;SDS011;51027;42.162;24.754;2023-02-21T08:15:03;13.13;;;3.70;;
64615;SDS011;51027;42.162;24.754;2023-02-21T08:17:30;10.70;;;3.13;;
64615;SDS011;51027;42.162;24.754;2023-02-21T08:19:55;9.27;;;2.90;;
64615;SDS011;51027;42.162;24.754;2023-02-21T08:22:20;10.98;;;3.22;;
64615;SDS011;51027;42.162;24.754;2023-02-21T08:24:49;10.98;;;3.20;;
64615;SDS011;51027;42.162;24.754;2023-02-21T08:27:15;8.68;;;3.15;;
64615;SDS011;51027;42.162;24.754;2023-02-21T08:29:41;16.48;;;3.60;;
64615;SDS011;51027;42.162;24.754;2023-02-21T08:32:06;7.32;;;2.55;;
64615;SDS011;51027;42.162;24.754;2023-02-21T08:34:33;7.40;;;3.08;;
64615;SDS011;51027;42.162;24.754;2023-02-21T08:36:58;8.57;;;2.50;;
64615;SDS011;51027;42.162;24.754;2023-02-21T08:39:24;10.48;;;3.30;;
64615;SDS011;51027;42.162;24.754;2023-02-21T08:41:51;11.75;;;3.33;;
64615;SDS011;51027;42.162;24.754;2023-02-21T08:44:17;13.45;;;3.10;;
64615;SDS011;51027;42.162;24.754;2023-02-21T08:46:45;11.52;;;3.22;;
64615;SDS011;51027;42.162;24.754;2023-02-21T08:49:11;5.80;;;2.45;;
64615;SDS011;51027;42.162;24.754;2023-02-21T08:51:37;8.95;;;2.60;;
64615;SDS011;51027;42.162;24.754;2023-02-21T08:54:04;10.10;;;2.97;;
64615;SDS011;51027;42.162;24.754;2023-02-21T08:56:29;7.25;;;2.63;;
64615;SDS011;51027;42.162;24.754;2023-02-21T08:58:55;10.60;;;2.70;;
64615;SDS011;51027;42.162;24.754;2023-02-21T09:01:21;8.85;;;3.15;;
64615;SDS011;51027;42.162;24.754;2023-02-21T09:03:47;10.68;;;3.20;;
64615;SDS011;51027;42.162;24.754;2023-02-21T09:06:13;9.10;;;2.67;;
64615;SDS011;51027;42.162;24.754;2023-02-21T09:08:40;10.23;;;2.65;;
64615;SDS011;51027;42.162;24.754;2023-02-21T09:11:05;8.60;;;2.55;;
64615;SDS011;51027;42.162;24.754;2023-02-21T09:13:32;10.75;;;3.13;;
64615;SDS011;51027;42.162;24.754;2023-02-21T09:16:01;11.75;;;3.47;;
64615;SDS011;51027;42.162;24.754;2023-02-21T09:18:28;7.63;;;2.72;;
64615;SDS011;51027;42.162;24.754;2023-02-21T09:20:55;10.32;;;3.15;;
64615;SDS011;51027;42.162;24.754;2023-02-21T09:23:22;10.05;;;3.03;;
64615;SDS011;51027;42.162;24.754;2023-02-21T09:25:49;10.82;;;3.10;;
64615;SDS011;51027;42.162;24.754;2023-02-21T09:28:15;6.03;;;2.80;;
64615;SDS011;51027;42.162;24.754;2023-02-21T09:30:41;13.02;;;3.00;;
64615;SDS011;51027;42.162;24.754;2023-02-21T09:33:07;8.10;;;2.90;;
64615;SDS011;51027;42.162;24.754;2023-02-21T09:35:33;9.95;;;3.10;;
64615;SDS011;51027;42.162;24.754;2023-02-21T09:37:59;13.57;;;2.88;;
64615;SDS011;51027;42.162;24.754;2023-02-21T09:40:36;12.63;;;2.80;;
64615;SDS011;51027;42.162;24.754;2023-02-21T09:43:11;5.65;;;2.42;;
64615;SDS011;51027;42.162;24.754;2023-02-21T09:45:39;11.57;;;3.58;;
64615;SDS011;51027;42.162;24.754;2023-02-21T09:48:07;7.20;;;2.65;;
64615;SDS011;51027;42.162;24.754;2023-02-21T09:50:44;8.07;;;2.58;;
64615;SDS011;51027;42.162;24.754;2023-02-21T09:53:13;10.77;;;3.00;;
64615;SDS011;51027;42.162;24.754;2023-02-21T09:55:44;10.57;;;3.17;;
64615;SDS011;51027;42.162;24.754;2023-02-21T09:58:11;8.52;;;3.13;;
64615;SDS011;51027;42.162;24.754;2023-02-21T10:00:38;8.85;;;3.28;;
64615;SDS011;51027;42.162;24.754;2023-02-21T10:03:25;8.23;;;2.72;;
64615;SDS011;51027;42.162;24.754;2023-02-21T10:06:17;10.68;;;3.13;;
64615;SDS011;51027;42.162;24.754;2023-02-21T10:08:53;9.80;;;3.10;;
64615;SDS011;51027;42.162;24.754;2023-02-21T10:16:43;9.45;;;3.28;;
64615;SDS011;51027;42.162;24.754;2023-02-21T10:19:19;9.73;;;2.78;;
64615;SDS011;51027;42.162;24.754;2023-02-21T10:21:46;8.00;;;2.63;;
64615;SDS011;51027;42.162;24.754;2023-02-21T10:24:19;7.38;;;2.70;;
64615;SDS011;51027;42.162;24.754;2023-02-21T10:32:11;9.68;;;2.88;;
64615;SDS011;51027;42.162;24.754;2023-02-21T10:34:36;9.50;;;3.10;;
64615;SDS011;51027;42.162;24.754;2023-02-21T10:37:05;11.40;;;3.63;;
64615;SDS011;51027;42.162;24.754;2023-02-21T10:39:39;7.55;;;2.60;;
64615;SDS011;51027;42.162;24.754;2023-02-21T10:42:10;7.78;;;2.83;;
64615;SDS011;51027;42.162;24.754;2023-02-21T10:44:40;6.35;;;2.30;;
64615;SDS011;51027;42.162;24.754;2023-02-21T10:50:06;8.82;;;2.65;;
64615;SDS011;51027;42.162;24.754;2023-02-21T10:52:45;6.80;;;2.70;;
64615;SDS011;51027;42.162;24.754;2023-02-21T10:55:19;6.53;;;2.80;;
64615;SDS011;51027;42.162;24.754;2023-02-21T10:57:48;10.07;;;3.00;;
64615;SDS011;51027;42.162;24.754;2023-02-21T11:00:31;8.27;;;2.80;;
64615;SDS011;51027;42.162;24.754;2023-02-21T11:03:04;7.40;;;2.72;;
64615;SDS011;51027;42.162;24.754;2023-02-21T11:05:31;8.65;;;3.30;;
64615;SDS011;51027;42.162;24.754;2023-02-21T11:08:05;9.13;;;2.78;;
64615;SDS011;51027;42.162;24.754;2023-02-21T11:15:29;7.97;;;3.00;;
64615;SDS011;51027;42.162;24.754;2023-02-21T11:20:50;16.73;;;6.82;;
64615;SDS011;51027;42.162;24.754;2023-02-21T11:23:27;15.30;;;6.32;;
64615;SDS011;51027;42.162;24.754;2023-02-21T11:25:59;26.05;;;13.65;;
64615;SDS011;51027;42.162;24.754;2023-02-21T11:28:35;22.35;;;10.70;;
64615;SDS011;51027;42.162;24.754;2023-02-21T11:31:12;24.65;;;11.80;;
64615;SDS011;51027;42.162;24.754;2023-02-21T11:33:54;8.68;;;3.15;;
64615;SDS011;51027;42.162;24.754;2023-02-21T11:36:28;8.35;;;2.70;;
64615;SDS011;51027;42.162;24.754;2023-02-21T11:43:56;7.45;;;2.55;;
64615;SDS011;51027;42.162;24.754;2023-02-21T11:46:29;5.40;;;2.45;;
64615;SDS011;51027;42.162;24.754;2023-02-21T11:51:42;8.38;;;2.90;;
64615;SDS011;51027;42.162;24.754;2023-02-21T11:54:10;8.77;;;2.80;;
64615;SDS011;51027;42.162;24.754;2023-02-21T11:56:46;8.00;;;2.60;;
64615;SDS011;51027;42.162;24.754;2023-02-21T12:02:22;7.18;;;2.35;;
64615;SDS011;51027;42.162;24.754;2023-02-21T12:04:51;5.07;;;2.10;;
64615;SDS011;51027;42.162;24.754;2023-02-21T12:20:35;5.43;;;2.08;;
64615;SDS011;51027;42.162;24.754;2023-02-21T12:29:02;6.97;;;2.25;;
64615;SDS011;51027;42.162;24.754;2023-02-21T12:39:36;5.90;;;1.85;;
64615;SDS011;51027;42.162;24.754;2023-02-21T12:47:16;26.67;;;12.80;;
64615;SDS011;51027;42.162;24.754;2023-02-21T12:57:34;4.35;;;1.48;;
64615;SDS011;51027;42.162;24.754;2023-02-21T13:00:13;3.38;;;1.40;;
64615;SDS011;51027;42.162;24.754;2023-02-21T13:03:04;4.60;;;1.88;;
64615;SDS011;51027;42.162;24.754;2023-02-21T13:05:50;3.20;;;1.27;;
64615;SDS011;51027;42.162;24.754;2023-02-21T13:08:23;3.60;;;1.95;;
64615;SDS011;51027;42.162;24.754;2023-02-21T13:13:33;5.18;;;1.95;;
64615;SDS011;51027;42.162;24.754;2023-02-21T13:16:03;7.65;;;2.10;;
64615;SDS011;51027;42.162;24.754;2023-02-21T13:18:32;7.50;;;1.80;;
64615;SDS011;51027;42.162;24.754;2023-02-21T13:21:04;5.15;;;1.75;;
64615;SDS011;51027;42.162;24.754;2023-02-21T13:23:47;3.75;;;1.38;;
64615;SDS011;51027;42.162;24.754;2023-02-21T13:28:44;7.47;;;2.00;;
64615;SDS011;51027;42.162;24.754;2023-02-21T13:31:23;10.32;;;3.15;;
64615;SDS011;51027;42.162;24.754;2023-02-21T13:33:55;13.10;;;3.30;;
64615;SDS011;51027;42.162;24.754;2023-02-21T13:42:01;11.15;;;3.67;;
64615;SDS011;51027;42.162;24.754;2023-02-21T13:44:47;11.13;;;3.38;;
64615;SDS011;51027;42.162;24.754;2023-02-21T13:47:18;7.55;;;2.70;;
64615;SDS011;51027;42.162;24.754;2023-02-21T14:02:59;6.78;;;2.20;;
64615;SDS011;51027;42.162;24.754;2023-02-21T14:05:25;5.03;;;2.10;;
64615;SDS011;51027;42.162;24.754;2023-02-21T14:08:17;5.60;;;2.08;;
64615;SDS011;51027;42.162;24.754;2023-02-21T14:10:50;9.50;;;2.40;;
64615;SDS011;51027;42.162;24.754;2023-02-21T14:13:19;4.70;;;1.88;;
64615;SDS011;51027;42.162;24.754;2023-02-21T14:15:49;5.28;;;2.28;;
64615;SDS011;51027;42.162;24.754;2023-02-21T14:18:25;7.13;;;2.00;;
64615;SDS011;51027;42.162;24.754;2023-02-21T14:20:51;7.15;;;2.38;;
64615;SDS011;51027;42.162;24.754;2023-02-21T14:23:20;6.88;;;2.35;;
64615;SDS011;51027;42.162;24.754;2023-02-21T14:26:01;5.88;;;1.90;;
64615;SDS011;51027;42.162;24.754;2023-02-21T14:31:55;7.50;;;2.42;;
64615;SDS011;51027;42.162;24.754;2023-02-21T14:39:54;5.07;;;2.40;;
64615;SDS011;51027;42.162;24.754;2023-02-21T15:02:22;7.95;;;2.70;;
64615;SDS011;51027;42.162;24.754;2023-02-21T15:07:50;5.50;;;2.30;;
64615;SDS011;51027;42.162;24.754;2023-02-21T15:12:55;8.47;;;2.30;;
64615;SDS011;51027;42.162;24.754;2023-02-21T15:15:33;7.57;;;2.63;;
64615;SDS011;51027;42.162;24.754;2023-02-21T15:18:10;8.77;;;2.83;;
64615;SDS011;51027;42.162;24.754;2023-02-21T15:20:46;8.23;;;2.45;;
64615;SDS011;51027;42.162;24.754;2023-02-21T15:23:46;10.02;;;2.60;;
64615;SDS011;51027;42.162;24.754;2023-02-21T15:26:27;13.82;;;3.60;;
64615;SDS011;51027;42.162;24.754;2023-02-21T15:31:38;14.43;;;3.10;;
64615;SDS011;51027;42.162;24.754;2023-02-21T15:34:13;7.57;;;2.35;;
64615;SDS011;51027;42.162;24.754;2023-02-21T15:36:45;10.07;;;3.05;;
64615;SDS011;51027;42.162;24.754;2023-02-21T15:39:23;11.73;;;3.58;;
64615;SDS011;51027;42.162;24.754;2023-02-21T15:41:55;10.13;;;3.53;;
64615;SDS011;51027;42.162;24.754;2023-02-21T15:47:07;15.35;;;4.85;;
64615;SDS011;51027;42.162;24.754;2023-02-21T15:49:44;15.07;;;4.97;;
64615;SDS011;51027;42.162;24.754;2023-02-21T15:52:28;19.48;;;6.50;;
64615;SDS011;51027;42.162;24.754;2023-02-21T15:57:39;16.08;;;6.80;;
64615;SDS011;51027;42.162;24.754;2023-02-21T16:00:18;15.80;;;6.20;;
64615;SDS011;51027;42.162;24.754;2023-02-21T16:02:49;15.93;;;6.03;;
64615;SDS011;51027;42.162;24.754;2023-02-21T16:05:26;19.27;;;6.97;;
64615;SDS011;51027;42.162;24.754;2023-02-21T16:07:53;17.98;;;6.40;;
64615;SDS011;51027;42.162;24.754;2023-02-21T16:10:25;17.83;;;6.47;;
64615;SDS011;51027;42.162;24.754;2023-02-21T16:12:55;15.77;;;5.25;;
64615;SDS011;51027;42.162;24.754;2023-02-21T16:15:23;16.83;;;6.60;;
64615;SDS011;51027;42.162;24.754;2023-02-21T16:17:52;12.77;;;4.80;;
64615;SDS011;51027;42.162;24.754;2023-02-21T16:20:29;13.82;;;4.55;;
64615;SDS011;51027;42.162;24.754;2023-02-21T16:28:23;12.60;;;4.20;;
64615;SDS011;51027;42.162;24.754;2023-02-21T16:30:48;13.57;;;4.70;;
64615;SDS011;51027;42.162;24.754;2023-02-21T16:33:14;13.45;;;4.53;;
64615;SDS011;51027;42.162;24.754;2023-02-21T16:35:40;10.88;;;3.40;;
64615;SDS011;51027;42.162;24.754;2023-02-21T16:38:09;10.70;;;3.20;;
64615;SDS011;51027;42.162;24.754;2023-02-21T16:40:38;11.25;;;3.53;;
64615;SDS011;51027;42.162;24.754;2023-02-21T16:43:03;15.45;;;4.13;;
64615;SDS011;51027;42.162;24.754;2023-02-21T16:45:29;10.00;;;3.05;;
64615;SDS011;51027;42.162;24.754;2023-02-21T16:47:57;7.60;;;2.90;;
64615;SDS011;51027;42.162;24.754;2023-02-21T16:50:37;6.90;;;2.60;;
64615;SDS011;51027;42.162;24.754;2023-02-21T16:53:04;9.50;;;2.80;;
64615;SDS011;51027;42.162;24.754;2023-02-21T16:55:30;8.88;;;2.78;;
64615;SDS011;51027;42.162;24.754;2023-02-21T16:58:06;9.38;;;2.90;;
64615;SDS011;51027;42.162;24.754;2023-02-21T17:00:40;10.60;;;3.22;;
64615;SDS011;51027;42.162;24.754;2023-02-21T17:03:05;13.02;;;4.03;;
64615;SDS011;51027;42.162;24.754;2023-02-21T17:05:30;15.05;;;4.07;;
64615;SDS011;51027;42.162;24.754;2023-02-21T17:07:56;13.00;;;4.50;;
64615;SDS011;51027;42.162;24.754;2023-02-21T17:10:22;15.52;;;5.22;;
64615;SDS011;51027;42.162;24.754;2023-02-21T17:12:48;18.33;;;5.88;;
64615;SDS011;51027;42.162;24.754;2023-02-21T17:15:13;17.23;;;6.28;;
64615;SDS011;51027;42.162;24.754;2023-02-21T17:20:24;18.52;;;6.80;;
64615;SDS011;51027;42.162;24.754;2023-02-21T17:22:50;18.95;;;7.18;;
64615;SDS011;51027;42.162;24.754;2023-02-21T17:25:17;17.75;;;6.13;;
64615;SDS011;51027;42.162;24.754;2023-02-21T17:27:44;19.35;;;6.47;;
64615;SDS011;51027;42.162;24.754;2023-02-21T17:30:10;18.00;;;5.82;;
64615;SDS011;51027;42.162;24.754;2023-02-21T17:32:36;13.95;;;5.28;;
64615;SDS011;51027;42.162;24.754;2023-02-21T17:35:02;16.38;;;5.75;;
64615;SDS011;51027;42.162;24.754;2023-02-21T17:37:28;16.60;;;5.47;;
64615;SDS011;51027;42.162;24.754;2023-02-21T17:39:54;16.52;;;5.93;;
64615;SDS011;51027;42.162;24.754;2023-02-21T17:42:21;19.33;;;5.78;;
64615;SDS011;51027;42.162;24.754;2023-02-21T17:44:47;16.83;;;5.72;;
64615;SDS011;51027;42.162;24.754;2023-02-21T17:47:14;19.08;;;6.30;;
64615;SDS011;51027;42.162;24.754;2023-02-21T17:49:41;17.05;;;4.82;;
64615;SDS011;51027;42.162;24.754;2023-02-21T17:52:07;15.38;;;5.00;;
64615;SDS011;51027;42.162;24.754;2023-02-21T17:54:32;17.67;;;5.57;;
64615;SDS011;51027;42.162;24.754;2023-02-21T17:56:58;16.92;;;5.20;;